Terminal Aerodrome Forecast
Issued by NWS

Home | Current Version | Previous Version | Graphics & Text | Print | Product List | Glossary On
Versions: 1 2 3 4 5 6 7 8 9 10 11 12 13 14 15 16 17 18 19 20 21
958
FTUS42 KMHX 281125 AAB
TAFOAJ
TAF AMD
KOAJ 281125Z 2811/2912 VRB04KT P6SM SKC
      TEMPO 2812/2813 5SM BR
     FM281300 VRB04KT P6SM BKN200
     FM281800 08008KT P6SM VCSH BKN045
     FM282100 08007KT P6SM OVC035
     FM290000 08005KT P6SM -SHRA OVC035
     FM290600 VRB04KT P6SM -SHRA OVC030
      AMD LTD TO CLD VIS AND WIND=

USA.gov is the U.S. government's official web portal to all federal, state and local government web resources and services.